Time;durP1;ratioP1;P1;durP2;ratioP2;P2;SDS_P1;SDS_P2;PMS_P1;PMS_P2;Temp;Humidity;BMP_temperature;BMP_pressure;BME280_temperature;BME280_humidity;BME280_pressure;Samples;Min_cycle;Max_cycle;Signal;HPM_P1;HPM_P2
2022/05/06 00:00:18;;;;;;;8.70;6.32;;;;;;;11.11;75.41;101588.47;5081650;28;20043;-76
2022/05/06 00:02:44;;;;;;;10.55;6.38;;;;;;;10.96;75.67;101584.50;5118254;28;20076;-76
2022/05/06 00:05:11;;;;;;;10.32;7.18;;;;;;;10.98;76.29;101575.91;5083055;28;20084;-76
2022/05/06 00:07:37;;;;;;;11.18;7.63;;;;;;;10.90;77.41;101582.81;5088151;28;20567;-76
2022/05/06 00:10:04;;;;;;;9.55;6.97;;;;;;;10.88;76.72;101585.03;5099573;28;20058;-76
2022/05/06 00:12:30;;;;;;;9.93;7.10;;;;;;;10.84;77.47;101592.25;5082973;28;20070;-76
2022/05/06 00:14:56;;;;;;;10.23;7.18;;;;;;;10.80;76.86;101588.31;5041002;28;20028;-76
2022/05/06 00:17:21;;;;;;;12.10;7.60;;;;;;;10.79;76.95;101586.66;5089338;28;20024;-76
2022/05/06 00:19:47;;;;;;;13.50;8.10;;;;;;;10.73;77.15;101584.97;5082943;28;20028;-76
2022/05/06 00:22:12;;;;;;;12.32;8.57;;;;;;;10.70;78.31;101575.22;5100029;28;20483;-76
2022/05/06 00:24:38;;;;;;;11.45;7.82;;;;;;;10.67;79.35;101578.53;5112077;28;20102;-76
2022/05/06 00:27:04;;;;;;;11.50;7.45;;;;;;;10.65;78.21;101577.13;5081752;28;20035;-76
2022/05/06 00:29:29;;;;;;;11.40;7.65;;;;;;;10.66;78.87;101579.63;5083180;28;20062;-76
2022/05/06 00:31:55;;;;;;;14.13;7.70;;;;;;;10.65;78.69;101574.34;5049810;28;20015;-76
2022/05/06 00:34:21;;;;;;;14.18;7.43;;;;;;;10.61;76.98;101573.19;5098394;28;20090;-76
2022/05/06 00:36:46;;;;;;;12.95;7.65;;;;;;;10.60;77.33;101579.88;5086039;27;20076;-76
2022/05/06 00:39:12;;;;;;;9.63;6.93;;;;;;;10.59;78.22;101581.00;5048507;28;20036;-76
2022/05/06 00:41:37;;;;;;;9.38;7.40;;;;;;;10.56;77.89;101579.59;5099584;28;20024;-76
2022/05/06 00:44:06;;;;;;;11.18;7.05;;;;;;;10.52;77.37;101582.03;5099587;28;20024;-76
2022/05/06 00:46:32;;;;;;;10.90;6.95;;;;;;;10.49;77.13;101576.19;5117717;28;20034;-76
2022/05/06 00:48:58;;;;;;;10.40;6.75;;;;;;;10.43;77.81;101580.88;5082568;28;20084;-76
2022/05/06 00:51:23;;;;;;;11.05;6.97;;;;;;;10.43;77.56;101586.44;5099312;28;20024;-76
2022/05/06 00:53:49;;;;;;;10.35;6.72;;;;;;;10.44;77.38;101587.25;5117514;28;20032;-76
2022/05/06 00:56:16;;;;;;;11.10;7.20;;;;;;;10.36;77.56;101588.59;5098657;28;20051;-76
2022/05/06 00:58:44;;;;;;;12.30;8.80;;;;;;;10.33;79.21;101586.34;5099319;28;20023;-76
2022/05/06 01:01:10;;;;;;;12.75;8.05;;;;;;;10.32;79.30;101587.47;5114733;28;20050;-76
2022/05/06 01:03:36;;;;;;;12.30;7.82;;;;;;;10.30;78.20;101589.66;5082312;28;20426;-77
2022/05/06 01:06:06;;;;;;;11.73;7.30;;;;;;;10.24;78.04;101587.91;5117133;28;20027;-76
2022/05/06 01:08:31;;;;;;;10.48;7.47;;;;;;;10.22;78.70;101588.19;5116334;28;20031;-76
2022/05/06 01:10:57;;;;;;;12.77;7.60;;;;;;;10.20;78.70;101579.28;5097734;28;20033;-76
2022/05/06 01:13:23;;;;;;;15.38;8.85;;;;;;;10.19;78.98;101577.59;5100337;28;20066;-76
2022/05/06 01:15:49;;;;;;;12.77;8.88;;;;;;;10.17;79.36;101579.81;5114999;28;20032;-76
2022/05/06 01:18:14;;;;;;;12.10;8.43;;;;;;;10.18;79.50;101580.66;5059816;28;20032;-76
2022/05/06 01:20:43;;;;;;;14.43;8.93;;;;;;;10.15;79.57;101579.25;5116738;28;20092;-76
2022/05/06 01:23:08;;;;;;;10.13;7.38;;;;;;;10.12;79.65;101584.50;5079746;28;20023;-76
2022/05/06 01:25:34;;;;;;;8.57;7.05;;;;;;;10.10;79.98;101573.66;5096404;28;20028;-76
2022/05/06 01:28:04;;;;;;;11.75;7.35;;;;;;;10.09;79.58;101573.94;5098691;28;20028;-76
2022/05/06 01:30:34;;;;;;;10.43;7.75;;;;;;;10.10;80.44;101572.81;5112574;28;20035;-76
2022/05/06 01:33:00;;;;;;;12.48;7.78;;;;;;;10.10;80.48;101575.59;5081891;28;20046;-76
2022/05/06 01:35:27;;;;;;;12.77;8.68;;;;;;;10.07;81.19;101566.69;5116495;28;20024;-76
2022/05/06 01:37:53;;;;;;;10.55;7.72;;;;;;;10.03;79.17;101576.66;5081819;28;20107;-76
2022/05/06 01:40:19;;;;;;;12.05;8.48;;;;;;;10.03;80.06;101570.28;5056609;28;20422;-76
2022/05/06 01:42:44;;;;;;;13.02;8.73;;;;;;;10.00;79.42;101565.22;5098460;28;20106;-76
2022/05/06 01:45:13;;;;;;;10.93;7.40;;;;;;;9.97;79.51;101566.63;5116637;28;20097;-76
2022/05/06 01:47:38;;;;;;;12.95;8.45;;;;;;;9.99;81.52;101564.41;5116522;28;20423;-76
2022/05/06 01:50:05;;;;;;;12.63;8.18;;;;;;;9.94;80.17;101567.13;5098055;28;20028;-76
2022/05/06 01:52:30;;;;;;;13.80;9.13;;;;;;;9.93;80.43;101576.56;5098412;28;20448;-76
2022/05/06 01:54:56;;;;;;;14.30;8.95;;;;;;;9.95;80.97;101567.97;5116207;28;20111;-76
2022/05/06 01:57:22;;;;;;;12.52;8.57;;;;;;;9.93;81.56;101571.00;5098089;28;20051;-76
2022/05/06 01:59:47;;;;;;;11.48;8.00;;;;;;;9.92;80.93;101580.44;5113137;28;20032;-76
2022/05/06 02:02:13;;;;;;;11.20;7.57;;;;;;;9.91;80.27;101578.75;5081355;28;20024;-76
2022/05/06 02:07:23;;;;;;;8.40;6.63;;;;;;;9.88;80.11;101579.28;5111081;28;20027;-76
2022/05/06 02:09:48;;;;;;;8.68;6.20;;;;;;;9.91;79.57;101589.03;5115999;28;20046;-76
2022/05/06 02:12:14;;;;;;;8.65;7.32;;;;;;;9.91;79.98;101594.56;5115970;28;20023;-76
2022/05/06 02:14:40;;;;;;;8.88;6.88;;;;;;;9.88;79.72;101592.31;5115950;28;20024;-75
2022/05/06 02:17:06;;;;;;;11.38;7.65;;;;;;;9.88;80.40;101584.00;5115943;28;20034;-76
2022/05/06 02:19:31;;;;;;;11.00;7.38;;;;;;;9.89;81.41;101580.97;5111810;28;20063;-76
2022/05/06 02:21:57;;;;;;;12.57;7.18;;;;;;;9.86;80.65;101575.91;5112842;28;20031;-76
2022/05/06 02:24:23;;;;;;;11.00;8.57;;;;;;;9.90;82.33;101587.34;5115726;28;20023;-76
2022/05/06 02:26:48;;;;;;;10.38;8.48;;;;;;;9.90;82.06;101588.19;5097621;28;20059;-76
2022/05/06 02:29:14;;;;;;;10.65;7.53;;;;;;;9.91;82.96;101583.47;5080855;28;20027;-76
2022/05/06 02:34:23;;;;;;;9.48;7.38;;;;;;;9.96;82.09;101587.13;5086071;28;20053;-75
2022/05/06 02:36:49;;;;;;;9.60;7.40;;;;;;;9.94;82.61;101581.00;5044613;28;20431;-75
2022/05/06 02:39:14;;;;;;;9.77;7.15;;;;;;;9.98;81.99;101579.38;5115628;28;20028;-75
2022/05/06 02:41:40;;;;;;;9.60;7.50;;;;;;;9.97;82.29;101582.41;5116082;28;20042;-76
2022/05/06 02:44:05;;;;;;;9.57;7.95;;;;;;;10.04;83.66;101571.94;5063796;28;20032;-76
2022/05/06 02:46:35;;;;;;;9.00;7.50;;;;;;;10.06;82.35;101570.56;5080649;28;20053;-75
2022/05/06 02:49:01;;;;;;;10.32;7.75;;;;;;;10.10;82.56;101578.38;5083649;28;20051;-76
2022/05/06 02:51:28;;;;;;;14.70;9.95;;;;;;;10.06;86.05;101576.13;5097416;28;20030;-75
2022/05/06 02:53:55;;;;;;;9.82;8.20;;;;;;;10.11;84.00;101575.31;5097592;28;20095;-75
2022/05/06 02:56:21;;;;;;;13.50;10.25;;;;;;;10.11;85.93;101582.81;5097729;28;20052;-76
2022/05/06 02:58:46;;;;;;;12.13;9.00;;;;;;;10.15;83.98;101575.63;5097701;28;20032;-76
2022/05/06 03:01:12;;;;;;;10.00;8.13;;;;;;;10.17;84.04;101584.50;5064129;28;20040;-76
2022/05/06 03:03:37;;;;;;;11.55;9.15;;;;;;;10.17;85.46;101576.19;5097770;28;20024;-75
2022/05/06 03:06:03;;;;;;;13.02;8.98;;;;;;;10.15;85.70;101576.47;5097236;28;20019;-76
2022/05/06 03:08:28;;;;;;;10.65;8.50;;;;;;;10.19;84.77;101582.31;5117810;28;20032;-76
2022/05/06 03:10:54;;;;;;;11.32;8.75;;;;;;;10.26;84.72;101580.16;5097020;28;20030;-76
2022/05/06 03:13:19;;;;;;;11.65;8.68;;;;;;;10.30;83.94;101581.31;5097279;28;20690;-76
2022/05/06 03:15:45;;;;;;;10.25;8.25;;;;;;;10.29;83.63;101574.09;5098924;28;20035;-76
2022/05/06 03:18:11;;;;;;;10.05;8.30;;;;;;;10.29;83.88;101576.88;5115789;28;20032;-76
2022/05/06 03:20:38;;;;;;;13.38;10.18;;;;;;;10.36;84.93;101582.19;5118933;28;20157;-76
2022/05/06 03:23:04;;;;;;;11.63;9.30;;;;;;;10.36;85.28;101573.88;5115166;28;20368;-77
2022/05/06 03:25:29;;;;;;;12.05;9.73;;;;;;;10.37;85.91;101572.78;5118844;28;20023;-77
2022/05/06 03:28:07;;;;;;;11.52;9.10;;;;;;;10.39;85.69;101578.88;5119281;28;20054;-76
2022/05/06 03:30:52;;;;;;;11.18;8.82;;;;;;;10.40;85.68;101569.47;5100866;28;20027;-76
2022/05/06 03:33:17;;;;;;;12.73;9.15;;;;;;;10.43;84.33;101571.72;5086573;28;20030;-76
2022/05/06 03:35:43;;;;;;;11.57;9.13;;;;;;;10.42;84.97;101576.44;5100695;28;20055;-77
2022/05/06 03:38:08;;;;;;;15.95;10.82;;;;;;;10.41;86.61;101571.97;5101048;28;20031;-76
2022/05/06 03:40:34;;;;;;;12.52;9.82;;;;;;;10.42;85.04;101572.78;5100624;28;20058;-77
2022/05/06 03:43:00;;;;;;;13.05;9.48;;;;;;;10.47;84.98;101575.59;5083684;28;20027;-76
2022/05/06 03:45:25;;;;;;;15.15;10.10;;;;;;;10.44;85.63;101567.81;5100900;28;20098;-76
2022/05/06 03:47:52;;;;;;;12.30;9.55;;;;;;;10.45;85.26;101578.66;5118779;28;20031;-75
2022/05/06 03:53:01;;;;;;;11.00;9.05;;;;;;;10.42;85.57;101579.22;5117819;28;20031;-76
2022/05/06 03:55:27;;;;;;;11.77;9.10;;;;;;;10.43;85.67;101580.88;5118248;28;20062;-76
2022/05/06 03:57:52;;;;;;;12.48;9.55;;;;;;;10.45;85.66;101572.28;5118349;28;20067;-76
2022/05/06 04:00:19;;;;;;;12.40;9.63;;;;;;;10.43;85.30;101578.09;5100231;28;20024;-76
2022/05/06 04:02:45;;;;;;;14.45;9.88;;;;;;;10.42;85.46;101573.66;5118768;28;20102;-76
2022/05/06 04:05:11;;;;;;;13.63;10.55;;;;;;;10.47;86.66;101576.47;5100419;28;20095;-76
2022/05/06 04:07:36;;;;;;;12.77;9.30;;;;;;;10.44;85.82;101581.69;5097154;28;20042;-76
2022/05/06 04:10:02;;;;;;;14.63;10.00;;;;;;;10.45;85.88;101578.66;5117929;28;20097;-76
2022/05/06 04:12:28;;;;;;;12.93;9.88;;;;;;;10.49;85.90;101576.19;5099910;28;20031;-76
2022/05/06 04:14:54;;;;;;;15.82;11.60;;;;;;;10.46;87.55;101585.06;5100028;28;20055;-76
2022/05/06 04:17:20;;;;;;;15.75;11.13;;;;;;;10.44;88.00;101585.31;5118355;28;20028;-76
2022/05/06 04:25:17;;;;;;;19.13;12.85;;;;;;;10.46;88.76;101585.06;5117820;28;20026;-77
2022/05/06 04:27:43;;;;;;;15.52;11.80;;;;;;;10.45;88.08;101589.78;5117563;28;20035;-77
2022/05/06 04:30:09;;;;;;;17.00;11.70;;;;;;;10.48;88.49;101580.91;5117356;28;20073;-76
2022/05/06 04:32:35;;;;;;;16.25;11.93;;;;;;;10.46;87.90;101594.22;5099920;28;20024;-77
2022/05/06 04:35:04;;;;;;;14.82;11.00;;;;;;;10.47;87.84;101592.28;5099679;28;20383;-77
2022/05/06 04:37:30;;;;;;;14.75;10.63;;;;;;;10.47;87.86;101582.03;5100330;28;20023;-77
2022/05/06 04:39:55;;;;;;;16.10;11.02;;;;;;;10.45;88.13;101587.00;5096986;28;20030;-76
2022/05/06 04:42:21;;;;;;;15.73;10.93;;;;;;;10.46;88.02;101585.88;5082727;28;20027;-76
2022/05/06 04:44:46;;;;;;;16.27;10.95;;;;;;;10.44;88.67;101588.09;5099628;28;20073;-77
2022/05/06 04:47:12;;;;;;;16.70;11.02;;;;;;;10.44;89.45;101582.53;5117846;28;20035;-77
2022/05/06 04:49:37;;;;;;;25.55;13.32;;;;;;;10.42;91.55;101579.22;5099375;28;20030;-77
2022/05/06 04:52:03;;;;;;;16.15;11.05;;;;;;;10.43;89.90;101585.59;5117439;28;20042;-76
2022/05/06 04:54:28;;;;;;;15.40;10.77;;;;;;;10.43;90.41;101585.59;5099291;28;20028;-77
2022/05/06 04:56:54;;;;;;;14.68;9.93;;;;;;;10.46;88.45;101583.13;5076520;28;20055;-77
2022/05/06 04:59:22;;;;;;;18.73;11.82;;;;;;;10.42;90.85;101586.69;5096532;28;20032;-77
2022/05/06 05:01:48;;;;;;;15.20;10.48;;;;;;;10.43;90.16;101593.94;5096940;28;20063;-76
2022/05/06 05:04:13;;;;;;;17.20;11.43;;;;;;;10.44;90.67;101592.81;5096421;28;20051;-77
2022/05/06 05:06:39;;;;;;;17.08;12.05;;;;;;;10.42;92.35;101600.56;5075685;28;20036;-77
2022/05/06 05:09:04;;;;;;;18.02;12.25;;;;;;;10.39;93.97;101592.78;5059436;28;20028;-77
2022/05/06 05:11:30;;;;;;;16.30;11.20;;;;;;;10.36;93.09;101601.63;5079103;28;20032;-76
2022/05/06 05:13:55;;;;;;;18.65;12.40;;;;;;;10.35;94.25;101594.41;5092652;28;20385;-77
2022/05/06 05:16:21;;;;;;;13.38;9.93;;;;;;;10.36;92.09;101594.13;5096702;28;20059;-76
2022/05/06 05:18:46;;;;;;;14.43;10.30;;;;;;;10.39;91.57;101593.63;5096858;28;20024;-76
2022/05/06 05:21:12;;;;;;;15.48;10.38;;;;;;;10.41;91.77;101588.63;5078695;28;20036;-76
2022/05/06 05:23:38;;;;;;;16.30;11.48;;;;;;;10.42;93.93;101598.66;5029633;28;20035;-76
2022/05/06 05:26:03;;;;;;;17.30;11.23;;;;;;;10.45;94.13;101584.22;5078440;28;20054;-76
2022/05/06 05:28:28;;;;;;;17.77;11.32;;;;;;;10.43;96.11;101594.75;5078330;28;20032;-77
2022/05/06 05:30:54;;;;;;;13.85;10.23;;;;;;;10.41;94.35;101594.19;5092860;28;20039;-77
2022/05/06 05:33:19;;;;;;;14.48;9.73;;;;;;;10.50;92.52;101597.28;5075798;28;20036;-76
2022/05/06 05:35:45;;;;;;;14.25;9.60;;;;;;;10.56;92.10;101595.38;5094700;28;20032;-76
2022/05/06 05:38:11;;;;;;;14.40;10.20;;;;;;;10.58;92.11;101598.75;5078192;28;20035;-76
2022/05/06 05:40:36;;;;;;;21.75;11.77;;;;;;;10.58;94.48;101593.19;5061125;28;20043;-76
2022/05/06 05:43:02;;;;;;;18.00;12.52;;;;;;;10.58;96.29;101590.41;5060869;28;20699;-76
2022/05/06 05:48:25;;;;;;;13.68;10.00;;;;;;;10.67;92.63;101594.34;5069768;28;20526;-76
2022/05/06 05:50:51;;;;;;;13.60;9.80;;;;;;;10.71;91.26;101601.06;5057869;28;20024;-76
2022/05/06 05:53:16;;;;;;;14.90;10.30;;;;;;;10.74;92.82;101604.13;5093142;28;20028;-76
2022/05/06 05:55:42;;;;;;;13.77;9.40;;;;;;;10.79;91.29;101611.66;5094792;28;20040;-76
2022/05/06 05:58:07;;;;;;;19.77;12.70;;;;;;;10.76;100.00;101605.81;5098287;28;20031;-76
2022/05/06 06:00:33;;;;;;;15.68;10.85;;;;;;;10.80;97.63;101615.28;5112955;28;20084;-76
2022/05/06 06:02:59;;;;;;;15.93;10.75;;;;;;;10.83;96.51;101618.34;5112513;28;20028;-76
2022/05/06 06:05:24;;;;;;;17.95;11.40;;;;;;;10.84;96.90;101616.44;5098191;28;20357;-76
2022/05/06 06:07:50;;;;;;;19.15;11.90;;;;;;;10.86;99.12;101616.97;5114222;28;20088;-76
2022/05/06 06:10:15;;;;;;;29.15;14.38;;;;;;;10.83;100.00;101621.13;5114253;28;20027;-76
2022/05/06 06:12:41;;;;;;;16.67;10.70;;;;;;;10.85;100.00;101613.38;5116410;28;20073;-76
2022/05/06 06:15:07;;;;;;;16.33;11.38;;;;;;;10.91;98.66;101617.00;5115044;28;20027;-76
2022/05/06 06:17:33;;;;;;;22.13;13.25;;;;;;;10.94;100.00;101619.25;5116119;28;20140;-76
2022/05/06 06:19:58;;;;;;;21.02;13.07;;;;;;;10.99;100.00;101615.66;5080044;28;20043;-76
2022/05/06 06:22:24;;;;;;;17.92;11.38;;;;;;;10.99;100.00;101621.22;5097987;28;20084;-76
2022/05/06 06:24:50;;;;;;;16.05;11.35;;;;;;;11.04;99.96;101618.47;5114520;28;20476;-74
2022/05/06 06:27:15;;;;;;;24.48;14.00;;;;;;;11.08;100.00;101619.59;5114773;28;20023;-77
2022/05/06 06:29:41;;;;;;;21.10;12.38;;;;;;;11.11;100.00;101619.06;5078201;28;20056;-76
2022/05/06 06:32:07;;;;;;;21.73;13.90;;;;;;;11.11;100.00;101624.63;5114777;28;20391;-75
2022/05/06 06:34:33;;;;;;;14.35;10.70;;;;;;;11.18;99.18;101616.88;5096697;28;20248;-75
2022/05/06 06:36:58;;;;;;;16.85;11.55;;;;;;;11.21;100.00;101624.66;5080684;28;20031;-75
2022/05/06 06:39:23;;;;;;;17.33;11.80;;;;;;;11.23;100.00;101622.47;5097525;28;20527;-75
2022/05/06 06:41:49;;;;;;;20.25;12.35;;;;;;;11.26;100.00;101627.47;5097770;28;20092;-75
2022/05/06 06:44:14;;;;;;;20.27;12.70;;;;;;;11.31;100.00;101626.63;5077884;28;20028;-75
2022/05/06 06:46:40;;;;;;;22.63;13.32;;;;;;;11.32;100.00;101626.38;5109865;28;20024;-75
2022/05/06 06:49:05;;;;;;;19.15;12.30;;;;;;;11.34;100.00;101629.75;5080897;28;20425;-75
2022/05/06 06:51:31;;;;;;;22.80;14.40;;;;;;;11.31;100.00;101624.72;5063362;28;20032;-75
2022/05/06 06:53:57;;;;;;;23.20;13.88;;;;;;;11.34;100.00;101628.91;5109817;28;20020;-71
2022/05/06 06:56:23;;;;;;;24.52;14.95;;;;;;;11.37;100.00;101631.97;5117287;28;20057;-75
2022/05/06 06:58:48;;;;;;;21.33;13.85;;;;;;;11.38;100.00;101632.81;5084923;28;20039;-77
2022/05/06 07:01:14;;;;;;;28.05;16.05;;;;;;;11.37;100.00;101640.31;5061521;27;20122;-76
2022/05/06 07:03:40;;;;;;;22.30;14.20;;;;;;;11.42;100.00;101631.13;5122549;27;20054;-77
2022/05/06 07:14:17;;;;;;;23.35;14.90;;;;;;;11.60;100.00;101649.28;5117709;28;20658;-76
2022/05/06 07:16:43;;;;;;;29.85;17.00;;;;;;;11.60;100.00;101646.50;5119768;28;20072;-77
2022/05/06 07:19:08;;;;;;;27.25;14.32;;;;;;;11.67;100.00;101655.44;5119500;28;20031;-77
2022/05/06 07:21:34;;;;;;;29.70;17.33;;;;;;;11.65;100.00;101654.06;5112500;28;20060;-77
2022/05/06 07:23:59;;;;;;;23.08;14.25;;;;;;;11.72;100.00;101654.63;5084101;28;20027;-74
2022/05/06 07:26:25;;;;;;;30.88;17.55;;;;;;;11.73;100.00;101654.34;5084240;28;20028;-74
2022/05/06 07:28:51;;;;;;;30.73;16.70;;;;;;;11.77;100.00;101660.19;5115812;28;20392;-74
2022/05/06 07:31:16;;;;;;;29.00;16.83;;;;;;;11.85;100.00;101659.66;5118192;28;20028;-73
2022/05/06 07:33:42;;;;;;;34.95;18.20;;;;;;;11.87;100.00;101653.84;5119233;28;20028;-74
2022/05/06 07:36:07;;;;;;;36.97;19.20;;;;;;;11.85;100.00;101654.97;5119157;27;20023;-74
2022/05/06 07:38:33;;;;;;;30.55;17.90;;;;;;;11.91;100.00;101654.97;5118847;28;20031;-74
2022/05/06 07:41:01;;;;;;;35.20;18.40;;;;;;;11.94;100.00;101660.00;5119266;28;20039;-73
2022/05/06 07:43:26;;;;;;;32.83;18.45;;;;;;;11.98;100.00;101661.09;5119097;28;20039;-73
2022/05/06 07:45:52;;;;;;;33.60;19.63;;;;;;;12.01;100.00;101657.78;5119185;28;20023;-73
2022/05/06 07:48:18;;;;;;;30.77;18.23;;;;;;;12.05;100.00;101658.91;5117900;28;20494;-74
2022/05/06 07:50:44;;;;;;;39.78;19.77;;;;;;;12.11;100.00;101659.75;5116871;28;20058;-73
2022/05/06 07:53:11;;;;;;;35.75;18.60;;;;;;;12.16;100.00;101660.59;5111281;28;20038;-73
2022/05/06 07:55:37;;;;;;;44.45;21.67;;;;;;;12.18;100.00;101661.16;5118662;28;20192;-74
2022/05/06 07:58:04;;;;;;;41.08;21.40;;;;;;;12.20;100.00;101656.16;5118218;28;20072;-74
2022/05/06 08:00:30;;;;;;;43.40;23.40;;;;;;;12.23;100.00;101654.72;5114180;28;20024;-74
2022/05/06 08:05:40;;;;;;;46.22;22.52;;;;;;;12.30;100.00;101661.69;5114767;28;20053;-73
2022/05/06 08:08:06;;;;;;;40.22;22.67;;;;;;;12.36;100.00;101661.72;5116639;28;20027;-75
2022/05/06 08:10:31;;;;;;;47.88;23.85;;;;;;;12.38;100.00;101671.47;5114216;28;20089;-74
2022/05/06 08:12:57;;;;;;;43.17;22.65;;;;;;;12.45;100.00;101671.19;5118340;28;20038;-75
2022/05/06 08:15:23;;;;;;;34.88;20.80;;;;;;;12.53;100.00;101663.09;5118415;28;20167;-75
2022/05/06 08:17:49;;;;;;;37.97;19.42;;;;;;;12.61;100.00;101666.44;5118584;28;20028;-74
2022/05/06 08:20:15;;;;;;;35.20;20.60;;;;;;;12.67;100.00;101668.94;5118333;28;20032;-72
2022/05/06 08:22:41;;;;;;;35.47;18.83;;;;;;;12.74;100.00;101666.72;5097647;28;20111;-74
2022/05/06 08:25:08;;;;;;;36.72;19.23;;;;;;;12.84;100.00;101670.59;5116643;28;20047;-73
2022/05/06 08:27:40;;;;;;;32.20;18.52;;;;;;;12.86;100.00;101669.19;5118197;28;20107;-73
2022/05/06 08:30:06;;;;;;;35.03;19.33;;;;;;;12.92;100.00;101664.44;5114045;28;20027;-73
2022/05/06 08:32:31;;;;;;;35.72;20.23;;;;;;;12.93;100.00;101666.97;5118360;28;20097;-73
2022/05/06 08:34:57;;;;;;;32.42;18.60;;;;;;;13.03;100.00;101668.06;5117808;28;20035;-73
2022/05/06 08:37:24;;;;;;;28.90;17.80;;;;;;;13.12;100.00;101671.94;5118277;28;20035;-73
2022/05/06 08:39:49;;;;;;;33.85;19.92;;;;;;;13.15;100.00;101675.00;5117378;28;20539;-73
2022/05/06 08:42:16;;;;;;;36.80;19.67;;;;;;;13.21;100.00;101677.78;5117765;28;20027;-73
2022/05/06 08:52:54;;;;;;;38.30;21.73;;;;;;;13.44;100.00;101685.53;5100407;28;20039;-73
2022/05/06 08:55:20;;;;;;;40.58;22.05;;;;;;;13.51;100.00;101686.09;5110019;28;22126;-73
2022/05/06 08:57:45;;;;;;;36.08;20.98;;;;;;;13.56;100.00;101674.03;5111211;28;20039;-74
2022/05/06 09:00:12;;;;;;;35.30;21.75;;;;;;;13.60;100.00;101675.97;5110541;28;20504;-74
2022/05/06 09:02:39;;;;;;;34.45;21.05;;;;;;;13.67;100.00;101678.44;5115776;28;20422;-74
2022/05/06 09:05:16;;;;;;;36.63;21.92;;;;;;;13.75;100.00;101677.03;5111645;28;20032;-74
2022/05/06 09:07:55;;;;;;;39.83;22.65;;;;;;;13.83;100.00;101677.25;5114995;28;20042;-74
2022/05/06 09:10:21;;;;;;;39.92;23.27;;;;;;;13.90;100.00;101671.38;5116203;28;20019;-74
2022/05/06 09:12:47;;;;;;;40.55;23.52;;;;;;;13.94;100.00;101680.84;5116635;28;20031;-74
2022/05/06 09:18:00;;;;;;;41.35;23.73;;;;;;;14.13;100.00;101664.25;5114610;28;20032;-73
2022/05/06 09:20:26;;;;;;;36.65;23.58;;;;;;;14.20;99.71;101661.94;5117116;28;20039;-74
2022/05/06 09:22:52;;;;;;;44.67;22.63;;;;;;;14.32;98.98;101664.38;5095607;28;20055;-73
2022/05/06 09:25:37;;;;;;;35.83;23.25;;;;;;;14.46;99.05;101653.38;5115473;28;20027;-73
2022/05/06 09:28:03;;;;;;;37.80;21.27;;;;;;;14.63;96.13;101647.38;5099231;28;20032;-73
2022/05/06 09:30:29;;;;;;;32.78;19.92;;;;;;;14.82;98.60;101650.25;5082101;28;20032;-73
2022/05/06 09:32:54;;;;;;;29.23;18.73;;;;;;;15.02;96.94;101654.81;5098737;28;20080;-73
2022/05/06 09:35:20;;;;;;;29.60;17.75;;;;;;;15.18;95.84;101653.50;5115704;28;20035;-73
2022/05/06 09:37:47;;;;;;;30.88;17.85;;;;;;;15.36;95.83;101652.72;5097057;28;20043;-73
2022/05/06 09:40:16;;;;;;;30.83;17.02;;;;;;;15.55;94.57;101655.56;5096164;28;20027;-73
2022/05/06 09:42:46;;;;;;;29.08;17.13;;;;;;;15.75;94.21;101662.06;5098781;28;20104;-73
2022/05/06 09:45:13;;;;;;;22.75;15.50;;;;;;;16.02;92.38;101658.63;5081767;28;20529;-73
2022/05/06 09:47:40;;;;;;;22.30;15.10;;;;;;;16.27;92.50;101649.81;5081737;28;20031;-73
2022/05/06 09:50:07;;;;;;;22.13;15.13;;;;;;;16.50;90.94;101656.44;5115315;28;20039;-73
2022/05/06 09:52:33;;;;;;;22.00;14.00;;;;;;;16.75;90.45;101662.72;5098523;28;20036;-74
2022/05/06 09:55:00;;;;;;;23.95;13.93;;;;;;;16.99;87.45;101656.97;5098151;28;20027;-74
2022/05/06 09:57:25;;;;;;;21.48;13.30;;;;;;;17.23;85.88;101656.81;5095862;28;20408;-73
2022/05/06 09:59:51;;;;;;;24.58;13.43;;;;;;;17.46;86.08;101654.91;5115494;28;20023;-73
2022/05/06 10:02:17;;;;;;;20.52;12.90;;;;;;;17.68;84.12;101662.59;5096398;28;20426;-74
2022/05/06 10:04:43;;;;;;;21.80;11.45;;;;;;;17.88;80.83;101661.34;5098376;28;20035;-73
2022/05/06 10:07:16;;;;;;;18.73;11.10;;;;;;;18.06;79.96;101654.75;5078231;28;20097;-73
2022/05/06 10:09:58;;;;;;;20.30;11.32;;;;;;;18.25;79.07;101646.16;5081601;28;20487;-74
2022/05/06 10:12:23;;;;;;;21.08;12.05;;;;;;;18.42;78.36;101648.25;5098413;28;20522;-73
2022/05/06 10:14:50;;;;;;;15.75;10.77;;;;;;;18.64;76.39;101643.78;5061327;28;20028;-72
2022/05/06 10:17:47;;;;;;;18.15;11.38;;;;;;;18.82;77.22;101636.28;5095510;28;20081;-73
2022/05/06 10:20:45;;;;;;;15.57;10.05;;;;;;;19.08;75.43;101630.78;5110792;28;20028;-73
2022/05/06 10:23:15;;;;;;;16.83;10.13;;;;;;;19.27;74.00;101634.16;5110943;28;20055;-73
2022/05/06 10:25:41;;;;;;;14.95;9.55;;;;;;;19.49;72.76;101627.59;5098163;28;20034;-73
2022/05/06 10:34:17;;;;;;;11.45;9.68;;;;;;;20.15;69.68;101624.72;5115738;28;20375;-73
2022/05/06 10:36:46;;;;;;;12.63;8.95;;;;;;;20.31;69.42;101625.88;5097388;28;20407;-73
2022/05/06 10:39:21;;;;;;;15.95;9.45;;;;;;;20.44;67.77;101632.50;5095556;28;20035;-75
2022/05/06 10:42:31;;;;;;;15.10;9.35;;;;;;;20.62;67.31;101630.53;5081113;28;20063;-74
2022/05/06 10:44:57;;;;;;;14.80;8.90;;;;;;;20.81;69.43;101620.81;5055479;28;20036;-73
2022/05/06 10:47:41;;;;;;;13.57;9.48;;;;;;;20.93;64.98;101624.63;5060166;28;20521;-74
2022/05/06 10:50:14;;;;;;;11.88;8.05;;;;;;;21.05;63.86;101623.06;5072917;28;20127;-74
2022/05/06 10:52:39;;;;;;;;;;;;;;;21.19;64.01;101613.19;5039996;28;20076;-74
2022/05/06 10:55:06;;;;;;;14.63;8.60;;;;;;;21.29;63.04;101602.69;5062553;28;19917;-74
2022/05/06 10:57:43;;;;;;;14.52;8.55;;;;;;;21.36;63.86;101600.16;5013375;28;20089;-74
2022/05/06 11:00:08;;;;;;;16.05;8.63;;;;;;;21.48;62.64;101597.47;5017846;28;20060;-74
2022/05/06 11:02:35;;;;;;;13.45;8.48;;;;;;;21.51;60.74;101593.13;5036771;28;20094;-74
2022/05/06 11:05:06;;;;;;;14.18;7.80;;;;;;;21.57;61.97;101595.41;5009239;28;20060;-74
2022/05/06 11:07:34;;;;;;;10.82;7.15;;;;;;;21.63;60.50;101594.03;5034478;28;20119;-74
2022/05/06 11:09:59;;;;;;;11.43;7.15;;;;;;;21.80;60.67;101595.06;5050555;28;20094;-74
2022/05/06 11:12:34;;;;;;;14.82;7.55;;;;;;;21.88;60.52;101588.53;5034526;28;20029;-74
2022/05/06 11:15:04;;;;;;;15.50;7.50;;;;;;;21.98;61.10;101588.13;5031155;28;20425;-74
2022/05/06 11:17:33;;;;;;;12.50;7.13;;;;;;;22.07;59.65;101591.69;5021677;28;20060;-73
2022/05/06 11:20:02;;;;;;;12.80;7.13;;;;;;;22.20;59.49;101595.41;5070188;28;20047;-73
2022/05/06 11:22:28;;;;;;;11.77;7.75;;;;;;;22.35;58.43;101585.47;5057798;28;20056;-74
2022/05/06 11:24:56;;;;;;;11.77;6.93;;;;;;;22.53;58.73;101578.44;5079601;28;20031;-74
2022/05/06 11:27:22;;;;;;;9.68;7.65;;;;;;;22.74;60.50;101571.88;5060085;28;20507;-74
2022/05/06 11:30:00;;;;;;;15.90;6.88;;;;;;;22.90;56.79;101572.84;5076621;28;20045;-74
2022/05/06 11:32:29;;;;;;;11.05;6.30;;;;;;;23.14;56.65;101569.22;5072059;28;20032;-74
2022/05/06 11:34:57;;;;;;;10.65;6.93;;;;;;;23.33;56.03;101584.81;5032453;28;20032;-74
2022/05/06 11:37:32;;;;;;;12.10;6.70;;;;;;;23.48;55.97;101583.25;5093962;28;20459;-74
2022/05/06 11:42:41;;;;;;;12.32;6.20;;;;;;;23.86;56.16;101585.69;5053217;28;20036;-74
2022/05/06 11:47:51;;;;;;;9.82;5.50;;;;;;;24.04;52.73;101581.38;5063483;28;20028;-74
2022/05/06 11:50:17;;;;;;;11.73;6.05;;;;;;;24.17;52.66;101578.50;5080261;28;20039;-74
2022/05/06 11:52:43;;;;;;;13.65;6.75;;;;;;;24.23;53.33;101572.19;5074742;28;20032;-74
2022/05/06 11:55:09;;;;;;;10.98;6.15;;;;;;;24.17;50.79;101579.31;5080043;28;20043;-74
2022/05/06 11:57:34;;;;;;;9.75;5.22;;;;;;;24.28;50.95;101577.59;5098786;28;20071;-74
2022/05/06 12:00:03;;;;;;;10.25;5.28;;;;;;;24.25;51.97;101575.50;5083888;28;20063;-74